Time;durP1;ratioP1;P1;durP2;ratioP2;P2;SDS_P1;SDS_P2;PMS_P1;PMS_P2;Temp;Humidity;BMP_temperature;BMP_pressure;BME280_temperature;BME280_humidity;BME280_pressure;Samples;Min_cycle;Max_cycle;Signal;HPM_P1;HPM_P2
2021/06/11 04:25:18;;;;;;;;;;;;;;;22.93;50.89;101375.19;2061722;28;4282;-33
2021/06/11 04:26:45;;;;;;;;;;;;;;;22.94;51.03;101373.16;2061794;28;3953;-35
2021/06/11 04:28:11;;;;;;;;;;;;;;;22.94;51.04;101374.03;2064119;28;3885;-34
2021/06/11 04:29:38;;;;;;;;;;;;;;;22.94;51.02;101365.47;2062558;28;4104;-34
2021/06/11 04:31:03;;;;;;;;;;;;;;;22.94;51.20;101373.16;2063758;28;4068;-35
2021/06/11 04:32:30;;;;;;;;;;;;;;;22.94;50.98;101368.31;2062019;28;4086;-34
2021/06/11 04:33:58;;;;;;;;;;;;;;;22.94;51.15;101368.31;2064647;28;3926;-33
2021/06/11 04:35:25;;;;;;;;;;;;;;;22.95;51.03;101361.41;2062699;28;4057;-33
2021/06/11 04:36:51;;;;;;;;;;;;;;;22.95;51.32;101364.25;2064303;28;3965;-33
2021/06/11 04:38:17;;;;;;;;;;;;;;;22.96;51.32;101365.13;2064075;28;3927;-33
2021/06/11 04:39:44;;;;;;;;;;;;;;;22.96;51.56;101367.97;2062762;28;4051;-33
2021/06/11 04:41:11;;;;;;;;;;;;;;;22.96;51.57;101367.97;2071437;28;3941;-33
2021/06/11 04:42:37;;;;;;;;;;;;;;;22.96;51.74;101370.81;2064442;28;4411;-34
2021/06/11 04:44:04;;;;;;;;;;;;;;;22.96;51.51;101374.50;2062277;28;3990;-35
2021/06/11 04:45:31;;;;;;;;;;;;;;;22.96;51.64;101373.69;2062380;28;4216;-34
2021/06/11 04:46:58;;;;;;;;;;;;;;;22.96;51.35;101374.50;2062306;28;4365;-35
2021/06/11 04:48:25;;;;;;;;;;;;;;;22.96;51.52;101380.22;2063765;28;4086;-34
2021/06/11 04:49:52;;;;;;;;;;;;;;;22.97;51.58;101376.19;2063235;28;3940;-33
2021/06/11 04:51:18;;;;;;;;;;;;;;;22.98;51.46;101374.16;2062487;28;3990;-35
2021/06/11 04:52:44;;;;;;;;;;;;;;;22.97;51.34;101370.50;2064487;28;4032;-34
2021/06/11 04:54:11;;;;;;;;;;;;;;;22.98;51.47;101374.16;2063749;28;3949;-33
2021/06/11 04:55:38;;;;;;;;;;;;;;;22.99;51.39;101375.81;2063164;28;4278;-33
2021/06/11 04:57:05;;;;;;;;;;;;;;;22.99;51.40;101370.97;2063680;28;4115;-33
2021/06/11 04:58:32;;;;;;;;;;;;;;;23.00;51.22;101375.50;2063601;28;4031;-34
2021/06/11 04:59:59;;;;;;;;;;;;;;;23.00;51.12;101375.50;2062253;28;3930;-34
2021/06/11 05:01:26;;;;;;;;;;;;;;;23.00;51.23;101369.78;2062812;28;4049;-34
2021/06/11 05:02:53;;;;;;;;;;;;;;;23.01;51.40;101370.59;2063442;28;4128;-35
2021/06/11 05:04:22;;;;;;;;;;;;;;;23.01;51.26;101367.75;2061043;28;4085;-35
2021/06/11 05:05:52;;;;;;;;;;;;;;;23.01;51.31;101368.56;2063223;28;3942;-36
2021/06/11 05:07:19;;;;;;;;;;;;;;;23.02;51.26;101375.13;2060753;28;4044;-33
2021/06/11 05:08:46;;;;;;;;;;;;;;;23.03;51.22;101376.81;2061642;28;3974;-33
2021/06/11 05:10:14;;;;;;;;;;;;;;;23.03;51.13;101366.22;2062726;28;4143;-33
2021/06/11 05:11:40;;;;;;;;;;;;;;;23.03;51.10;101374.78;2061813;28;4104;-35
2021/06/11 05:13:07;;;;;;;;;;;;;;;23.04;51.12;101372.75;2061989;28;4084;-34
2021/06/11 05:14:34;;;;;;;;;;;;;;;23.05;51.09;101377.28;2062504;28;4043;-34
2021/06/11 05:16:01;;;;;;;;;;;;;;;23.05;51.06;101369.56;2061840;28;4017;-36
2021/06/11 05:17:28;;;;;;;;;;;;;;;23.05;51.08;101372.41;2059378;28;4088;-35
2021/06/11 05:18:55;;;;;;;;;;;;;;;23.05;51.05;101375.25;2060552;28;4008;-33
2021/06/11 05:20:22;;;;;;;;;;;;;;;23.07;50.94;101372.03;2062753;28;4036;-34
2021/06/11 05:21:49;;;;;;;;;;;;;;;23.07;50.98;101378.59;2061141;28;4036;-33
2021/06/11 05:23:17;;;;;;;;;;;;;;;23.08;51.09;101380.25;2061811;28;3927;-36
2021/06/11 05:24:43;;;;;;;;;;;;;;;23.06;51.03;101368.34;2062150;28;4072;-33
2021/06/11 05:26:10;;;;;;;;;;;;;;;23.08;50.98;101376.56;2070694;28;3908;-33
2021/06/11 05:27:35;;;;;;;;;;;;;;;23.08;51.05;101366.00;2071140;28;4034;-35
2021/06/11 05:29:02;;;;;;;;;;;;;;;23.09;50.92;101366.81;2066621;28;3920;-34
2021/06/11 05:30:28;;;;;;;;;;;;;;;23.10;50.93;101372.19;2070714;28;4213;-33
2021/06/11 05:31:54;;;;;;;;;;;;;;;23.10;50.80;101363.63;2071014;28;4138;-33
2021/06/11 05:33:22;;;;;;;;;;;;;;;23.11;50.82;101361.59;2069069;28;4232;-35
2021/06/11 05:34:48;;;;;;;;;;;;;;;23.10;50.89;101372.19;2070123;28;3939;-34
2021/06/11 05:36:13;;;;;;;;;;;;;;;23.11;50.82;101365.28;2070929;28;3907;-34
2021/06/11 05:37:40;;;;;;;;;;;;;;;23.11;50.80;101364.44;2068072;28;4037;-35
2021/06/11 05:39:07;;;;;;;;;;;;;;;23.13;50.76;101353.50;2069995;28;4110;-34
2021/06/11 05:40:33;;;;;;;;;;;;;;;23.15;50.85;101361.72;2069794;28;4201;-34
2021/06/11 05:42:00;;;;;;;;;;;;;;;23.14;50.75;101360.88;2068444;28;3962;-34
2021/06/11 05:43:26;;;;;;;;;;;;;;;23.15;50.70;101367.41;2064891;28;4732;-35
2021/06/11 05:44:53;;;;;;;;;;;;;;;23.16;50.55;101364.22;2070795;28;3888;-33
2021/06/11 05:46:20;;;;;;;;;;;;;;;23.16;50.55;101369.06;2070975;28;4058;-33
2021/06/11 05:47:47;;;;;;;;;;;;;;;23.17;50.58;101367.91;2070779;28;3957;-33
2021/06/11 05:49:14;;;;;;;;;;;;;;;23.18;50.56;101367.53;2070378;28;3943;-37
2021/06/11 05:50:39;;;;;;;;;;;;;;;23.18;50.54;101367.53;2068067;28;4241;-37
2021/06/11 05:52:06;;;;;;;;;;;;;;;23.19;50.47;101365.53;2070243;28;3921;-34
2021/06/11 05:53:32;;;;;;;;;;;;;;;23.20;50.53;101370.03;2070826;28;4242;-35
2021/06/11 05:54:58;;;;;;;;;;;;;;;23.19;50.47;101366.34;2070627;28;3986;-33
2021/06/11 05:56:25;;;;;;;;;;;;;;;23.20;50.54;101368.03;2070607;28;4226;-34
2021/06/11 05:57:52;;;;;;;;;;;;;;;23.20;50.40;101355.78;2069741;28;3988;-33
2021/06/11 05:59:19;;;;;;;;;;;;;;;23.22;50.46;101364.81;2070072;28;4064;-32
2021/06/11 06:00:45;;;;;;;;;;;;;;;23.22;50.46;101359.09;2070124;28;4189;-33
2021/06/11 06:02:12;;;;;;;;;;;;;;;23.22;50.38;101357.09;2069854;28;3997;-34
2021/06/11 06:03:39;;;;;;;;;;;;;;;23.23;50.36;101367.31;2065480;28;4224;-34
2021/06/11 06:05:06;;;;;;;;;;;;;;;23.23;50.36;101363.63;2070086;28;3908;-35
2021/06/11 06:06:32;;;;;;;;;;;;;;;23.24;50.24;101357.56;2069580;28;4192;-35
2021/06/11 06:08:00;;;;;;;;;;;;;;;23.25;50.28;101364.09;2070429;28;3925;-35
2021/06/11 06:09:27;;;;;;;;;;;;;;;23.25;50.30;101361.25;2070752;28;4067;-34
2021/06/11 06:10:53;;;;;;;;;;;;;;;23.25;50.36;101355.53;2070261;28;3899;-35
2021/06/11 06:12:20;;;;;;;;;;;;;;;23.26;50.22;101357.19;2069654;28;4036;-36
2021/06/11 06:13:47;;;;;;;;;;;;;;;23.27;50.29;101361.75;2071234;28;3974;-33
2021/06/11 06:15:13;;;;;;;;;;;;;;;23.27;50.23;101356.84;2070356;28;4068;-34
2021/06/11 06:16:40;;;;;;;;;;;;;;;23.29;50.17;101353.63;2070580;28;4015;-34
2021/06/11 06:18:07;;;;;;;;;;;;;;;23.29;50.19;101356.47;2070534;28;4152;-34
2021/06/11 06:19:33;;;;;;;;;;;;;;;23.29;50.16;101350.78;2069942;28;4194;-34
2021/06/11 06:20:59;;;;;;;;;;;;;;;23.29;50.15;101353.63;2069698;28;3945;-33
2021/06/11 06:22:25;;;;;;;;;;;;;;;23.30;50.12;101363.88;2068672;28;4192;-33
2021/06/11 06:23:51;;;;;;;;;;;;;;;23.29;50.18;101354.44;2071378;28;3907;-34
2021/06/11 06:25:17;;;;;;;;;;;;;;;23.30;50.07;101358.16;2069809;28;4122;-38
2021/06/11 06:26:43;;;;;;;;;;;;;;;23.31;50.08;101354.09;2070787;28;3974;-35
2021/06/11 06:28:10;;;;;;;;;;;;;;;23.32;50.05;101347.19;2068425;28;4061;-37
2021/06/11 06:29:36;;;;;;;;;;;;;;;23.32;49.97;101355.75;2070284;28;4272;-35
2021/06/11 06:31:02;;;;;;;;;;;;;;;23.32;50.07;101356.63;2069839;28;3925;-34
2021/06/11 06:32:30;;;;;;;;;;;;;;;23.32;50.02;101350.91;2070193;28;4083;-35
2021/06/11 06:33:57;;;;;;;;;;;;;;;23.34;50.17;101353.38;2069173;28;3839;-35
2021/06/11 06:35:24;;;;;;;;;;;;;;;23.33;50.01;101341.16;2068847;28;4051;-35
2021/06/11 06:36:51;;;;;;;;;;;;;;;23.34;50.04;101348.50;2068007;28;3895;-33
2021/06/11 06:38:30;;;;;;;;;;;;;;;23.35;49.90;101346.50;2069371;28;4060;-34
2021/06/11 06:39:57;;;;;;;;;;;;;;;23.34;50.00;101342.78;2068921;28;3899;-33
2021/06/11 06:41:24;;;;;;;;;;;;;;;23.36;49.99;101344.47;2068654;28;4083;-32
2021/06/11 06:42:51;;;;;;;;;;;;;;;23.36;49.97;101345.31;2071300;28;3907;-34
2021/06/11 06:44:18;;;;;;;;;;;;;;;23.37;49.89;101346.97;2069780;28;3974;-36
2021/06/11 06:45:44;;;;;;;;;;;;;;;23.37;49.98;101340.44;2070407;28;3966;-33
2021/06/11 06:47:10;;;;;;;;;;;;;;;23.37;50.01;101341.25;2070082;28;3925;-34
2021/06/11 06:48:36;;;;;;;;;;;;;;;23.37;49.91;101338.41;2069802;28;4198;-34
2021/06/11 06:50:03;;;;;;;;;;;;;;;23.38;49.90;101339.22;2070889;28;3933;-34
2021/06/11 06:51:30;;;;;;;;;;;;;;;23.38;49.95;101331.53;2070834;28;4039;-33
2021/06/11 06:53:03;;;;;;;;;;;;;;;23.39;49.93;101338.88;2071473;28;4004;-33
2021/06/11 06:54:29;;;;;;;;;;;;;;;23.39;49.90;101340.91;2069336;28;4064;-33
2021/06/11 06:55:55;;;;;;;;;;;;;;;23.40;49.86;101339.72;2071396;28;3906;-35
2021/06/11 06:57:22;;;;;;;;;;;;;;;23.39;49.83;101338.88;2070183;28;4007;-35
2021/06/11 06:58:48;;;;;;;;;;;;;;;23.41;50.02;101344.25;2070197;28;3935;-34
2021/06/11 07:00:15;;;;;;;;;;;;;;;23.41;49.88;101341.41;2070552;28;3946;-35
2021/06/11 07:01:42;;;;;;;;;;;;;;;23.41;49.92;101341.41;2070291;28;4026;-35
2021/06/11 07:03:08;;;;;;;;;;;;;;;23.41;49.83;101336.50;2070059;28;3876;-33
2021/06/11 07:04:34;;;;;;;;;;;;;;;23.41;49.83;101342.22;2070796;28;4080;-34
2021/06/11 07:06:00;;;;;;;;;;;;;;;23.42;49.74;101341.03;2071994;28;3858;-33
2021/06/11 07:07:27;;;;;;;;;;;;;;;23.43;49.85;101336.13;2070914;28;4209;-34
2021/06/11 07:08:53;;;;;;;;;;;;;;;23.44;49.94;101334.97;2068640;28;4102;-33
2021/06/11 07:10:20;;;;;;;;;;;;;;;23.44;49.65;101334.97;2062956;28;4200;-34
2021/06/11 07:11:51;;;;;;;;;;;;;;;23.44;49.96;101324.38;2071428;28;3972;-34
2021/06/11 07:13:17;;;;;;;;;;;;;;;23.44;49.93;101327.22;2070475;28;4041;-33
2021/06/11 07:14:44;;;;;;;;;;;;;;;23.45;49.84;101337.44;2070462;28;4252;-34
2021/06/11 07:16:10;;;;;;;;;;;;;;;23.46;49.86;101335.41;2069982;28;3893;-35
2021/06/11 07:17:37;;;;;;;;;;;;;;;23.46;49.73;101336.28;2070346;28;4262;-35
2021/06/11 07:19:04;;;;;;;;;;;;;;;23.47;49.87;101329.34;2070698;28;3979;-35
2021/06/11 07:20:30;;;;;;;;;;;;;;;23.47;49.87;101329.34;2063343;28;4184;-34
2021/06/11 07:21:58;;;;;;;;;;;;;;;23.48;49.81;101333.03;2069992;28;3911;-35
2021/06/11 07:23:24;;;;;;;;;;;;;;;23.49;49.79;101337.59;2070166;28;4232;-33
2021/06/11 07:24:51;;;;;;;;;;;;;;;23.48;49.83;101336.72;2070943;28;3959;-35
2021/06/11 07:26:17;;;;;;;;;;;;;;;23.47;49.82;101335.06;2070241;28;4926;-35
2021/06/11 07:27:43;;;;;;;;;;;;;;;23.49;49.87;101344.13;2069158;28;4030;-32
2021/06/11 07:29:10;;;;;;;;;;;;;;;23.49;49.89;101344.13;2069819;28;3928;-33
2021/06/11 07:30:37;;;;;;;;;;;;;;;23.50;49.80;101342.91;2069427;28;4012;-35
2021/06/11 07:32:06;;;;;;;;;;;;;;;23.51;49.78;101336.00;2070439;28;3960;-34
2021/06/11 07:33:32;;;;;;;;;;;;;;;23.50;49.88;101340.06;2069405;28;4227;-35
2021/06/11 07:34:59;;;;;;;;;;;;;;;23.51;49.90;101335.19;2070598;28;3932;-34
2021/06/11 07:36:25;;;;;;;;;;;;;;;23.51;49.87;101335.19;2068321;28;4422;-33
2021/06/11 07:37:51;;;;;;;;;;;;;;;23.52;49.93;101340.53;2070126;28;3915;-35
2021/06/11 07:39:19;;;;;;;;;;;;;;;23.53;49.88;101339.34;2069222;28;4050;-35
2021/06/11 07:40:46;;;;;;;;;;;;;;;23.53;49.85;101333.63;2070210;28;3996;-35
2021/06/11 07:42:14;;;;;;;;;;;;;;;23.53;49.85;101336.50;2069597;28;3916;-34
2021/06/11 07:43:40;;;;;;;;;;;;;;;23.54;49.85;101337.31;2069771;28;4211;-32
2021/06/11 07:45:06;;;;;;;;;;;;;;;23.54;49.97;101343.88;2070034;28;3922;-34
2021/06/11 07:46:36;;;;;;;;;;;;;;;23.56;49.89;101344.34;2069915;28;4228;-35
2021/06/11 07:48:04;;;;;;;;;;;;;;;23.55;49.80;101339.81;2069765;28;3928;-35
2021/06/11 07:49:31;;;;;;;;;;;;;;;23.56;49.93;101338.63;2066460;28;4048;-34
2021/06/11 07:50:58;;;;;;;;;;;;;;;23.57;49.91;101348.06;2067567;28;3927;-32
2021/06/11 07:52:24;;;;;;;;;;;;;;;23.58;nan;101340.31;2067436;28;4253;-36
2021/06/11 07:53:51;;;;;;;;;;;;;;;23.58;49.84;101337.44;2068852;28;4006;-38
2021/06/11 07:55:18;;;;;;;;;;;;;;;23.58;nan;101337.44;2068140;28;3927;-35
2021/06/11 07:56:44;;;;;;;;;;;;;;;23.57;49.90;101333.75;2069119;28;4211;-33
2021/06/11 07:58:11;;;;;;;;;;;;;;;23.58;49.88;101340.31;2068264;28;3911;-34
2021/06/11 07:59:37;;;;;;;;;;;;;;;23.57;49.89;101336.63;2066775;28;4074;-34
2021/06/11 08:01:04;;;;;;;;;;;;;;;23.59;49.94;101333.38;2067776;28;4104;-34
2021/06/11 08:02:30;;;;;;;;;;;;;;;23.57;49.91;101339.47;2068985;28;4074;-35
2021/06/11 08:03:56;;;;;;;;;;;;;;;23.58;49.87;101340.31;2069080;28;3884;-33
2021/06/11 08:05:23;;;;;;;;;;;;;;;23.58;49.97;101338.28;2068559;28;4287;-34
2021/06/11 08:06:50;;;;;;;;;;;;;;;23.59;49.89;101333.38;2067739;28;3969;-35
2021/06/11 08:08:17;;;;;;;;;;;;;;;23.59;49.84;101334.22;2067050;28;3925;-35
2021/06/11 08:09:43;;;;;;;;;;;;;;;23.61;49.93;101342.44;2068836;28;4265;-33
2021/06/11 08:11:10;;;;;;;;;;;;;;;23.60;49.88;101338.75;2069187;28;3975;-34
2021/06/11 08:12:36;;;;;;;;;;;;;;;23.61;49.83;101337.56;2068590;28;4229;-33
2021/06/11 08:14:02;;;;;;;;;;;;;;;23.60;49.88;101337.91;2068425;28;3955;-33
2021/06/11 08:15:30;;;;;;;;;;;;;;;23.61;49.89;101342.44;2069242;28;4264;-33
2021/06/11 08:16:57;;;;;;;;;;;;;;;23.62;49.80;101338.38;2069167;28;3951;-35
2021/06/11 08:18:24;;;;;;;;;;;;;;;23.62;49.87;101329.81;2066313;28;4028;-34
2021/06/11 08:19:51;;;;;;;;;;;;;;;23.63;49.84;101331.50;2069082;28;4070;-34
2021/06/11 08:21:17;;;;;;;;;;;;;;;23.63;49.88;101331.50;2067276;28;3898;-34
2021/06/11 08:22:43;;;;;;;;;;;;;;;23.62;49.88;101339.22;2066045;28;4068;-36
2021/06/11 08:24:10;;;;;;;;;;;;;;;23.64;49.79;101333.16;2064633;28;3932;-35
2021/06/11 08:25:36;;;;;;;;;;;;;;;23.64;49.74;101331.13;2064757;28;4282;-38
2021/06/11 08:27:04;;;;;;;;;;;;;;;23.64;49.77;101338.88;2066315;28;3903;-33
2021/06/11 08:28:30;;;;;;;;;;;;;;;23.65;49.81;101327.06;2065487;28;4418;-34
2021/06/11 08:29:56;;;;;;;;;;;;;;;23.65;49.83;101329.09;2066177;28;3974;-35
2021/06/11 08:31:22;;;;;;;;;;;;;;;23.65;49.79;101329.91;2071158;28;4080;-33
2021/06/11 08:32:50;;;;;;;;;;;;;;;23.65;49.68;101329.09;2068720;28;4006;-36
2021/06/11 08:34:16;;;;;;;;;;;;;;;23.66;49.69;101330.78;2068710;28;3928;-34
2021/06/11 08:35:42;;;;;;;;;;;;;;;23.66;49.76;101334.47;2066537;28;4101;-35
2021/06/11 08:37:09;;;;;;;;;;;;;;;23.67;49.68;101329.56;2068781;28;3925;-35
2021/06/11 08:38:35;;;;;;;;;;;;;;;23.67;49.76;101332.44;2067467;28;4239;-35
2021/06/11 08:40:02;;;;;;;;;;;;;;;23.67;49.72;101329.56;2066849;28;3940;-34
2021/06/11 08:41:30;;;;;;;;;;;;;;;23.68;49.73;101336.94;2070812;28;4261;-33
2021/06/11 08:42:56;;;;;;;;;;;;;;;23.68;49.67;101329.22;2068596;28;3885;-36
2021/06/11 08:44:24;;;;;;;;;;;;;;;23.68;49.70;101328.38;2069472;28;4046;-34
2021/06/11 08:45:50;;;;;;;;;;;;;;;23.69;49.77;101333.75;2068946;28;3889;-34
2021/06/11 08:47:17;;;;;;;;;;;;;;;23.69;49.71;101327.19;2071420;28;3920;-34
2021/06/11 08:48:43;;;;;;;;;;;;;;;23.70;49.72;101323.13;2065075;28;4469;-32
2021/06/11 08:50:10;;;;;;;;;;;;;;;23.70;49.67;101323.13;2071465;28;4082;-34
2021/06/11 08:51:36;;;;;;;;;;;;;;;23.70;49.76;101331.72;2066683;28;4021;-35
2021/06/11 08:53:02;;;;;;;;;;;;;;;23.70;49.71;101334.56;2066659;28;3946;-33
2021/06/11 08:54:29;;;;;;;;;;;;;;;23.69;49.75;101341.47;2068568;28;4030;-35
2021/06/11 08:55:56;;;;;;;;;;;;;;;23.69;49.95;101341.47;2064451;28;3970;-37
2021/06/11 08:57:23;;;;;;;;;;;;;;;23.69;49.81;101336.59;2066089;28;4088;-35
2021/06/11 08:58:50;;;;;;;;;;;;;;;23.69;49.88;101335.75;2065945;28;4202;-35
2021/06/11 09:00:17;;;;;;;;;;;;;;;23.69;49.80;101336.59;2066987;28;3958;-34
2021/06/11 09:01:44;;;;;;;;;;;;;;;23.68;49.76;101334.94;2063886;28;4876;-33
2021/06/11 09:03:11;;;;;;;;;;;;;;;23.69;49.78;101332.91;2066674;28;3920;-35
2021/06/11 09:04:38;;;;;;;;;;;;;;;23.69;49.74;101330.06;2070952;28;4007;-34
2021/06/11 09:06:05;;;;;;;;;;;;;;;23.68;49.80;101336.94;2066883;28;3820;-34
2021/06/11 09:07:34;;;;;;;;;;;;;;;23.68;49.71;101334.09;2067864;28;4937;-33
2021/06/11 09:09:05;;;;;;;;;;;;;;;23.68;49.78;101339.78;2066063;28;3981;-35
2021/06/11 09:10:31;;;;;;;;;;;;;;;23.68;49.67;101336.94;2066331;28;4067;-36
2021/06/11 09:11:59;;;;;;;;;;;;;;;23.68;49.70;101337.78;2068339;28;3964;-34
2021/06/11 09:13:26;;;;;;;;;;;;;;;23.69;49.55;101341.47;2071829;28;4227;-33
2021/06/11 09:14:53;;;;;;;;;;;;;;;23.69;49.55;101338.63;2071161;28;3958;-35
2021/06/11 09:16:20;;;;;;;;;;;;;;;23.68;49.56;101346.38;2069455;28;4059;-33
2021/06/11 09:17:48;;;;;;;;;;;;;;;23.68;49.48;101329.22;2068840;28;4131;-35
2021/06/11 09:19:23;;;;;;;;;;;;;;;23.68;49.48;101334.09;2069976;28;3978;-34
2021/06/11 09:20:49;;;;;;;;;;;;;;;23.67;49.50;101332.44;2070200;28;4218;-33
2021/06/11 09:22:17;;;;;;;;;;;;;;;23.67;49.51;101335.28;2070621;28;4088;-35
2021/06/11 09:23:43;;;;;;;;;;;;;;;23.67;49.46;101338.16;2069647;28;4235;-32
2021/06/11 09:25:09;;;;;;;;;;;;;;;23.67;49.49;101344.69;2067755;28;3963;-33
2021/06/11 09:26:36;;;;;;;;;;;;;;;23.68;49.44;101334.09;2068159;28;4320;-34
2021/06/11 09:28:02;;;;;;;;;;;;;;;23.68;49.57;101334.09;2068708;28;4224;-34
2021/06/11 09:29:28;;;;;;;;;;;;;;;23.69;49.42;101341.47;2067031;28;4052;-34
2021/06/11 09:30:55;;;;;;;;;;;;;;;23.69;49.40;101339.44;2068725;28;3959;-34
2021/06/11 09:32:21;;;;;;;;;;;;;;;23.68;49.35;101332.09;2066002;28;4233;-34
2021/06/11 09:33:47;;;;;;;;;;;;;;;23.69;49.40;101330.06;2068729;28;3972;-34
2021/06/11 09:35:15;;;;;;;;;;;;;;;23.68;49.38;101336.94;2069076;28;4009;-36
2021/06/11 09:36:41;;;;;;;;;;;;;;;23.68;49.40;101332.09;2068343;28;4225;-35
2021/06/11 09:38:08;;;;;;;;;;;;;;;23.69;49.27;101332.91;2070561;28;3919;-35
2021/06/11 09:39:34;;;;;;;;;;;;;;;23.69;49.40;101330.88;2065207;28;4201;-35
2021/06/11 09:41:02;;;;;;;;;;;;;;;23.70;49.44;101332.53;2070591;28;3943;-34
2021/06/11 09:42:29;;;;;;;;;;;;;;;23.70;49.43;101334.56;2070228;28;4255;-35
2021/06/11 09:43:58;;;;;;;;;;;;;;;23.72;49.42;101329.38;2069002;28;3983;-35
2021/06/11 09:45:25;;;;;;;;;;;;;;;23.77;49.59;101332.81;2069965;28;4099;-35
2021/06/11 09:46:51;;;;;;;;;;;;;;;23.74;49.55;101339.25;2068298;28;4006;-34
2021/06/11 09:48:19;;;;;;;;;;;;;;;23.73;49.55;101328.16;2067830;28;4353;-34
2021/06/11 09:49:46;;;;;;;;;;;;;;;23.73;49.53;101337.56;2070319;28;3854;-34
2021/06/11 09:51:12;;;;;;;;;;;;;;;23.72;49.62;101329.38;2069456;28;3894;-34
2021/06/11 09:52:38;;;;;;;;;;;;;;;23.72;49.50;101335.91;2070502;28;4054;-35
2021/06/11 09:54:05;;;;;;;;;;;;;;;23.71;49.49;101334.25;2070911;28;3922;-35
2021/06/11 09:55:31;;;;;;;;;;;;;;;23.73;49.56;101328.16;2070647;28;4098;-34
2021/06/11 09:56:57;;;;;;;;;;;;;;;23.77;49.60;101331.97;2069197;28;3958;-34
2021/06/11 09:58:25;;;;;;;;;;;;;;;23.76;49.59;101330.28;2069073;28;5097;-35
2021/06/11 09:59:52;;;;;;;;;;;;;;;23.76;49.57;101330.28;2068926;28;4160;-35
2021/06/11 10:01:19;;;;;;;;;;;;;;;23.76;49.69;101322.59;2068883;28;4220;-34
2021/06/11 10:02:45;;;;;;;;;;;;;;;23.76;49.64;101325.44;2069991;28;4045;-35
2021/06/11 10:04:11;;;;;;;;;;;;;;;23.77;49.68;101326.25;2070494;28;4202;-35
2021/06/11 10:05:37;;;;;;;;;;;;;;;23.78;49.74;101325.06;2071009;28;4247;-34
2021/06/11 10:07:03;;;;;;;;;;;;;;;23.78;49.74;101327.91;2070617;28;3895;-36
2021/06/11 10:08:29;;;;;;;;;;;;;;;23.77;49.83;101320.53;2069973;28;4092;-35
2021/06/11 10:09:55;;;;;;;;;;;;;;;23.78;49.86;101319.34;2070263;28;3942;-35
2021/06/11 10:11:26;;;;;;;;;;;;;;;23.78;49.88;101316.50;2070361;28;4250;-35
2021/06/11 10:12:53;;;;;;;;;;;;;;;23.80;49.94;101328.41;2071246;28;4059;-35
2021/06/11 10:14:19;;;;;;;;;;;;;;;23.79;49.97;101321.00;2071356;28;4429;-35
2021/06/11 10:15:46;;;;;;;;;;;;;;;23.79;49.94;101329.56;2071124;28;4116;-35
2021/06/11 10:17:12;;;;;;;;;;;;;;;23.80;50.06;101333.28;2070591;28;3991;-35
2021/06/11 10:18:39;;;;;;;;;;;;;;;23.80;50.09;101325.53;2069935;28;4198;-35
2021/06/11 10:20:05;;;;;;;;;;;;;;;23.82;50.10;101328.03;2067904;28;3928;-35
2021/06/11 10:21:33;;;;;;;;;;;;;;;23.82;50.13;101328.03;2070290;28;4052;-35
2021/06/11 10:22:59;;;;;;;;;;;;;;;23.82;50.22;101328.88;2066371;28;4134;-35
2021/06/11 10:24:26;;;;;;;;;;;;;;;23.82;50.17;101320.31;2064276;28;4054;-34
2021/06/11 10:25:55;;;;;;;;;;;;;;;23.83;50.18;101324.81;2065923;28;3939;-35
2021/06/11 10:27:21;;;;;;;;;;;;;;;23.84;50.23;101325.63;2068128;28;4058;-35
2021/06/11 10:28:48;;;;;;;;;;;;;;;23.84;50.21;101319.91;2069607;28;3908;-35
2021/06/11 10:30:14;;;;;;;;;;;;;;;23.84;50.32;101320.75;2064528;28;3892;-34
2021/06/11 10:31:44;;;;;;;;;;;;;;;23.84;50.40;101326.47;2066357;28;4125;-35
2021/06/11 10:33:10;;;;;;;;;;;;;;;23.84;50.33;101325.63;2067098;28;4016;-34
2021/06/11 10:34:37;;;;;;;;;;;;;;;23.85;50.44;101328.16;2065066;28;4058;-34
2021/06/11 10:36:04;;;;;;;;;;;;;;;23.85;50.44;101316.72;2067434;28;3994;-35
2021/06/11 10:37:30;;;;;;;;;;;;;;;23.86;50.46;101329.81;2065412;28;4293;-35
2021/06/11 10:38:57;;;;;;;;;;;;;;;23.86;50.40;101321.22;2067846;28;3920;-35
2021/06/11 10:40:23;;;;;;;;;;;;;;;23.85;50.46;101328.16;2068741;28;4270;-35
2021/06/11 10:41:51;;;;;;;;;;;;;;;23.86;50.56;101321.22;2068117;28;3948;-35
2021/06/11 10:43:18;;;;;;;;;;;;;;;23.88;50.50;101321.72;2066076;28;3890;-35
2021/06/11 10:44:45;;;;;;;;;;;;;;;23.88;50.57;101321.72;2070229;28;4061;-35
2021/06/11 10:46:11;;;;;;;;;;;;;;;23.88;50.59;101321.72;2070820;28;3894;-36
2021/06/11 10:47:38;;;;;;;;;;;;;;;23.89;50.55;101319.69;2070388;28;4077;-35
2021/06/11 10:49:07;;;;;;;;;;;;;;;23.89;50.79;101323.38;2068786;28;3930;-34
2021/06/11 10:50:33;;;;;;;;;;;;;;;23.90;50.85;101322.19;2071020;28;4070;-34
2021/06/11 10:52:00;;;;;;;;;;;;;;;23.92;50.75;101327.53;2069214;28;4005;-35
2021/06/11 10:53:28;;;;;;;;;;;;;;;23.93;50.89;101326.31;2070284;28;4236;-34
2021/06/11 10:54:55;;;;;;;;;;;;;;;23.94;50.95;101325.16;2069103;28;3918;-35
2021/06/11 10:56:21;;;;;;;;;;;;;;;23.94;50.96;101337.41;2066687;28;4101;-35
2021/06/11 10:57:48;;;;;;;;;;;;;;;23.93;50.94;101327.19;2070359;28;3945;-34
2021/06/11 10:59:15;;;;;;;;;;;;;;;23.95;51.03;101323.94;2070489;28;3945;-34
2021/06/11 11:00:42;;;;;;;;;;;;;;;23.96;51.08;101317.06;2067691;28;4259;-34
2021/06/11 11:02:09;;;;;;;;;;;;;;;23.95;51.14;101318.22;2069648;28;4005;-34
2021/06/11 11:03:37;;;;;;;;;;;;;;;23.95;51.19;101321.91;2069792;28;4110;-35
2021/06/11 11:05:06;;;;;;;;;;;;;;;23.95;51.27;101330.47;2068887;28;3954;-35
2021/06/11 11:06:34;;;;;;;;;;;;;;;23.96;51.21;101319.91;2069826;28;4062;-35
2021/06/11 11:08:00;;;;;;;;;;;;;;;23.97;51.32;101321.56;2065001;28;3864;-35
2021/06/11 11:09:27;;;;;;;;;;;;;;;23.97;51.41;101318.72;2067378;28;4232;-35
2021/06/11 11:10:55;;;;;;;;;;;;;;;23.96;51.35;101317.06;2069951;28;3947;-35
2021/06/11 11:12:26;;;;;;;;;;;;;;;23.98;51.33;101321.22;2062865;28;4242;-34
2021/06/11 11:13:53;;;;;;;;;;;;;;;23.97;51.29;101319.53;2068901;28;4089;-34
2021/06/11 11:15:20;;;;;;;;;;;;;;;23.98;51.50;101318.34;2064264;28;4087;-34
2021/06/11 11:16:47;;;;;;;;;;;;;;;23.98;51.31;101321.22;2068392;28;3967;-34
2021/06/11 11:18:14;;;;;;;;;;;;;;;23.99;51.42;101316.31;2066029;28;3973;-34
2021/06/11 11:19:41;;;;;;;;;;;;;;;23.97;51.38;101316.69;2065620;28;4090;-34
2021/06/11 11:21:08;;;;;;;;;;;;;;;23.99;51.48;101322.03;2068502;28;3978;-34
2021/06/11 11:22:36;;;;;;;;;;;;;;;23.99;51.48;101328.59;2067708;28;4262;-34
2021/06/11 11:24:02;;;;;;;;;;;;;;;24.00;51.64;101323.69;2066130;28;4016;-34
2021/06/11 11:25:29;;;;;;;;;;;;;;;24.00;51.63;101320.84;2067014;28;4053;-35
2021/06/11 11:26:55;;;;;;;;;;;;;;;24.02;51.56;101326.19;2070843;28;3940;-42
2021/06/11 11:28:23;;;;;;;;;;;;;;;24.02;51.55;101320.50;2067583;28;4086;-35
2021/06/11 11:29:49;;;;;;;;;;;;;;;24.01;51.57;101319.63;2066823;28;4014;-35
2021/06/11 11:31:15;;;;;;;;;;;;;;;24.02;51.54;101297.63;2070003;28;3891;-35
2021/06/11 11:32:42;;;;;;;;;;;;;;;24.00;51.46;101290.22;2065583;28;4089;-35
2021/06/11 11:34:09;;;;;;;;;;;;;;;24.00;51.48;101284.50;2066579;28;4031;-34
2021/06/11 11:35:37;;;;;;;;;;;;;;;24.02;51.44;101291.91;2067794;28;4074;-34
2021/06/11 11:37:04;;;;;;;;;;;;;;;24.02;51.42;101298.44;2069156;28;4190;-34
2021/06/11 11:38:30;;;;;;;;;;;;;;;24.00;51.44;101290.22;2068635;28;4230;-35
2021/06/11 11:39:57;;;;;;;;;;;;;;;24.02;51.44;101291.91;2069833;28;4131;-34
2021/06/11 11:41:24;;;;;;;;;;;;;;;24.02;51.37;101289.03;2070563;28;4096;-33
2021/06/11 11:42:50;;;;;;;;;;;;;;;24.03;51.44;101287.84;2069496;28;3919;-34
2021/06/11 11:44:17;;;;;;;;;;;;;;;24.02;51.40;101291.91;2069161;28;4049;-33
2021/06/11 11:45:49;;;;;;;;;;;;;;;24.03;51.36;101282.13;2068638;28;4078;-34
2021/06/11 11:47:16;;;;;;;;;;;;;;;24.03;51.39;101276.41;2068764;28;3943;-33
2021/06/11 11:48:44;;;;;;;;;;;;;;;24.03;51.46;101271.50;2070158;28;4908;-34
2021/06/11 11:50:10;;;;;;;;;;;;;;;24.04;51.41;101273.19;2069259;28;3955;-32
2021/06/11 11:51:37;;;;;;;;;;;;;;;24.05;51.43;101274.03;2066632;28;4034;-34
2021/06/11 11:53:04;;;;;;;;;;;;;;;24.05;51.54;101268.31;2069048;28;3973;-41
2021/06/11 11:54:32;;;;;;;;;;;;;;;24.05;51.56;101263.41;2068228;28;4034;-33
2021/06/11 11:55:58;;;;;;;;;;;;;;;24.05;51.54;101272.00;2068888;28;3904;-32
2021/06/11 11:57:25;;;;;;;;;;;;;;;24.07;51.50;101271.59;2069911;28;4278;-33